»·PEaware :: N1KF KBOI-KPUW

N1KF :: KBOI-KPUW

FLIGHT INFORMATION

Flight Status: Arrived
Operator: Privately registered:
United States
More flights under this callsign
Pilot: Alex K. (14822)
Aircraft: ROCKWELL 500 SHRIKE COMMANDER
(AC50)
More flights by this aircraft type
Origin: KBOI Boise Air Terminal/Gowen
United States
Destination: KPUW Pullman/Moscow Regl
United States
More flights between these airports :: More routes between these airports
Route: +BOI3 BOI V253 PUW
File this flight plan on PilotEdge
Remarks:
Altitude:
(Current/Filed)
12,000ft
Speed:
(Current/Filed)
160kts
Departed: 30-Nov-17 02:23 PM
Arrived: 30-Nov-17 03:37 PM
Distance/Time
Traveled:
194nm/1:14
Distance/Time
To Go:
Arrived

Flight Plot

Page will automatically refresh every two minutes.

Flight plan parsing failed; only flown route is shown


Map Options




Map Legend


Flown Route
Filed Route
Departure Airport
Arrival Airport
Navaid (VOR, NDB)
Fix

Horizontal Profiles

Position Reports

Time Latitude Longitude Heading Altitude Ground
Speed
30-Nov-17 14:14 43.570223 -116.228981 272 2836ft 0kts
30-Nov-17 14:15 43.570223 -116.228981 272 2836ft 0kts
30-Nov-17 14:16 43.570223 -116.228981 272 2836ft 0kts
30-Nov-17 14:17 43.570223 -116.228981 272 2836ft 0kts
30-Nov-17 14:18 43.570223 -116.228981 272 2836ft 0kts
30-Nov-17 14:19 43.570223 -116.228981 272 2836ft 0kts
30-Nov-17 14:20 43.570223 -116.228981 272 2836ft 0kts
30-Nov-17 14:21 43.570223 -116.228981 272 2836ft 0kts
30-Nov-17 14:22 43.570223 -116.228981 272 2836ft 0kts
30-Nov-17 14:23 43.570223 -116.228981 272 2836ft 0kts
30-Nov-17 14:24 43.570184 -116.229305 258 2835ft 10kts
30-Nov-17 14:25 43.568252 -116.227633 115 2839ft 26kts
30-Nov-17 14:26 43.565704 -116.220247 113 2848ft 27kts
30-Nov-17 14:27 43.563780 -116.217391 232 2851ft 11kts
30-Nov-17 14:28 43.572785 -116.243812 296 4062ft 96kts
30-Nov-17 14:29 43.584270 -116.275139 297 5725ft 97kts
30-Nov-17 14:30 43.596570 -116.308068 297 7362ft 97kts
30-Nov-17 14:31 43.621803 -116.309888 10 8885ft 102kts
30-Nov-17 14:32 43.650930 -116.301151 1 10308ft 110kts
30-Nov-17 14:33 43.681212 -116.296993 353 11685ft 115kts
30-Nov-17 14:34 43.721140 -116.295349 355 11978ft 174kts
30-Nov-17 14:35 43.772675 -116.291107 358 11962ft 192kts
30-Nov-17 14:36 43.826040 -116.286228 357 11961ft 194kts
30-Nov-17 14:37 43.878830 -116.282552 1 11959ft 185kts
30-Nov-17 14:38 43.930009 -116.276666 356 11959ft 188kts
30-Nov-17 14:39 43.982823 -116.273559 358 11962ft 188kts
30-Nov-17 14:40 44.035271 -116.268272 357 11988ft 192kts
30-Nov-17 14:41 44.088567 -116.265174 1 11988ft 190kts
30-Nov-17 14:42 44.141348 -116.259064 357 11986ft 193kts
30-Nov-17 14:43 44.194643 -116.254837 357 12065ft 191kts
30-Nov-17 14:44 44.248220 -116.250589 357 11968ft 196kts
30-Nov-17 14:45 44.301219 -116.246945 1 11963ft 188kts
30-Nov-17 14:46 44.352044 -116.242348 3 11961ft 183kts
30-Nov-17 14:47 44.402685 -116.237853 3 11962ft 182kts
30-Nov-17 14:48 44.453091 -116.233287 3 11962ft 182kts
30-Nov-17 14:49 44.503455 -116.228908 3 11962ft 182kts
30-Nov-17 14:50 44.552413 -116.224706 3 11962ft 182kts
30-Nov-17 14:51 44.603066 -116.220367 3 11962ft 182kts
30-Nov-17 14:52 44.653432 -116.216047 3 11962ft 182kts
30-Nov-17 14:53 44.704032 -116.211701 3 11962ft 182kts
30-Nov-17 14:54 44.754380 -116.207367 3 11962ft 182kts
30-Nov-17 14:55 44.803382 -116.220714 344 11962ft 183kts
30-Nov-17 14:56 44.852070 -116.240196 344 11962ft 182kts
30-Nov-17 14:57 44.900364 -116.259538 344 11962ft 182kts
30-Nov-17 14:58 44.948201 -116.278764 343 11964ft 172kts
30-Nov-17 14:59 44.992709 -116.295223 337 11956ft 164kts
30-Nov-17 15:00 45.037532 -116.314777 340 11960ft 174kts
30-Nov-17 15:01 45.084290 -116.334525 345 11963ft 181kts
30-Nov-17 15:02 45.130295 -116.352428 344 11963ft 177kts
30-Nov-17 15:03 45.177914 -116.371347 344 11962ft 181kts
30-Nov-17 15:04 45.226462 -116.390981 344 11969ft 182kts
30-Nov-17 15:05 45.274833 -116.410606 344 11994ft 182kts
30-Nov-17 15:06 45.321777 -116.429240 342 11991ft 166kts
30-Nov-17 15:07 45.366462 -116.448063 344 11996ft 176kts
30-Nov-17 15:08 45.414219 -116.467635 344 11981ft 180kts
30-Nov-17 15:09 45.461306 -116.486963 346 11967ft 179kts
30-Nov-17 15:10 45.508933 -116.506239 346 11967ft 181kts
30-Nov-17 15:11 45.557466 -116.527051 350 11968ft 192kts
30-Nov-17 15:12 45.611009 -116.547186 345 11974ft 204kts
30-Nov-17 15:13 45.663737 -116.569395 345 11963ft 198kts
30-Nov-17 15:14 45.717959 -116.591760 344 11972ft 205kts
30-Nov-17 15:15 45.770951 -116.613933 344 11962ft 199kts
30-Nov-17 15:16 45.825513 -116.635190 338 11970ft 204kts
30-Nov-17 15:17 45.878132 -116.658136 337 11967ft 194kts
30-Nov-17 15:18 45.928241 -116.678652 336 11968ft 186kts
30-Nov-17 15:19 45.976606 -116.699045 335 11968ft 182kts
30-Nov-17 15:20 46.025079 -116.719375 334 11905ft 185kts
30-Nov-17 15:21 46.075237 -116.742221 341 11530ft 194kts
30-Nov-17 15:22 46.127255 -116.763426 344 11167ft 197kts
30-Nov-17 15:23 46.179611 -116.785177 344 10769ft 200kts
30-Nov-17 15:24 46.232477 -116.806804 346 10276ft 199kts
30-Nov-17 15:25 46.285158 -116.829367 344 9791ft 198kts
30-Nov-17 15:26 46.337519 -116.851394 345 9314ft 198kts
30-Nov-17 15:27 46.389686 -116.873082 340 8841ft 197kts
30-Nov-17 15:28 46.414145 -116.942384 290 8343ft 198kts
30-Nov-17 15:29 46.435572 -117.016379 295 7611ft 205kts
30-Nov-17 15:30 46.460264 -117.091173 296 6846ft 208kts
30-Nov-17 15:31 46.485719 -117.165329 297 6157ft 208kts
30-Nov-17 15:32 46.511739 -117.240337 297 5438ft 211kts
30-Nov-17 15:33 46.538191 -117.315481 298 4828ft 207kts
30-Nov-17 15:34 46.573030 -117.372621 8 4319ft 194kts
30-Nov-17 15:35 46.607895 -117.343317 52 4340ft 178kts
30-Nov-17 15:36 46.642845 -117.279917 53 4334ft 160kts
30-Nov-17 15:37 46.664572 -117.240564 53 4332ft 132kts
30-Nov-17 15:38 46.685502 -117.206140 49 4159ft 107kts
30-Nov-17 15:39 46.705250 -117.176927 41 3372ft 98kts
30-Nov-17 15:40 46.727450 -117.152759 44 3092ft 102kts
30-Nov-17 15:41 46.741630 -117.118663 72 2549ft 83kts
30-Nov-17 15:42 46.745151 -117.108035 58 2545ft 0kts

Navigation Log

Ident Type
Flight plan parsing failed, navigation log unavailable